Time;durP1;ratioP1;P1;durP2;ratioP2;P2;SDS_P1;SDS_P2;PMS_P1;PMS_P2;Temp;Humidity;BMP_temperature;BMP_pressure;BME280_temperature;BME280_humidity;BME280_pressure;Samples;Min_cycle;Max_cycle;Signal;HPM_P1;HPM_P2
2023/04/04 00:02:13;;;;;;;1.80;1.53;;;;;;;;;;5031934;28;20276;-56
2023/04/04 00:04:39;;;;;;;1.83;1.73;;;;;;;;;;5029395;28;20197;-56
2023/04/04 00:07:06;;;;;;;2.33;1.60;;;;;;;;;;5031049;28;20535;-56
2023/04/04 00:09:33;;;;;;;3.67;1.67;;;;;;;;;;5028025;28;20204;-57
2023/04/04 00:11:59;;;;;;;2.50;1.63;;;;;;;;;;5030778;28;20938;-56
2023/04/04 00:14:26;;;;;;;2.20;1.57;;;;;;;;;;5031624;28;20790;-56
2023/04/04 00:16:52;;;;;;;1.77;1.63;;;;;;;;;;5031689;28;21188;-57
2023/04/04 00:19:18;;;;;;;2.03;1.57;;;;;;;;;;5031419;28;20435;-57
2023/04/04 00:21:47;;;;;;;2.70;1.77;;;;;;;;;;5031697;28;20470;-59
2023/04/04 00:24:13;;;;;;;1.80;1.63;;;;;;;;;;5031517;28;20446;-57
2023/04/04 00:26:40;;;;;;;1.60;1.50;;;;;;;;;;5031604;28;20466;-58
2023/04/04 00:29:06;;;;;;;1.50;1.40;;;;;;;;;;5031369;28;20442;-58
2023/04/04 00:31:32;;;;;;;1.90;1.60;;;;;;;;;;5031827;28;20497;-56
2023/04/04 00:33:58;;;;;;;1.83;1.70;;;;;;;;;;5031372;28;20549;-55
2023/04/04 00:36:24;;;;;;;3.70;1.73;;;;;;;;;;5031501;28;20448;-57
2023/04/04 00:38:51;;;;;;;3.23;1.77;;;;;;;;;;5031513;28;20203;-57
2023/04/04 00:41:17;;;;;;;2.47;1.60;;;;;;;;;;5031489;28;20268;-57
2023/04/04 00:43:44;;;;;;;2.80;2.20;;;;;;;;;;5031551;28;20451;-57
2023/04/04 00:46:13;;;;;;;2.23;1.67;;;;;;;;;;5031263;28;20439;-56
2023/04/04 00:48:40;;;;;;;2.67;1.80;;;;;;;;;;5031334;28;20520;-56
2023/04/04 00:51:06;;;;;;;2.63;1.83;;;;;;;;;;5031189;28;20470;-56
2023/04/04 00:53:32;;;;;;;2.53;1.87;;;;;;;;;;5031381;28;20627;-56
2023/04/04 00:55:58;;;;;;;3.20;2.00;;;;;;;;;;5031494;28;20466;-56
2023/04/04 00:58:26;;;;;;;2.17;1.50;;;;;;;;;;5030899;28;20847;-56
2023/04/04 01:00:53;;;;;;;3.33;1.80;;;;;;;;;;5031169;28;20463;-56
2023/04/04 01:03:19;;;;;;;2.73;1.70;;;;;;;;;;5031039;28;20470;-56
2023/04/04 01:05:45;;;;;;;2.60;1.80;;;;;;;;;;5031284;28;20469;-56
2023/04/04 01:08:11;;;;;;;2.87;1.73;;;;;;;;;;5031044;28;20278;-57
2023/04/04 01:10:38;;;;;;;4.23;1.80;;;;;;;;;;5031059;28;20481;-55
2023/04/04 01:13:04;;;;;;;2.67;1.80;;;;;;;;;;5030875;28;20475;-58
2023/04/04 01:15:30;;;;;;;2.87;1.90;;;;;;;;;;5031254;28;20535;-57
2023/04/04 01:17:59;;;;;;;1.90;1.77;;;;;;;;;;5031120;28;20526;-56
2023/04/04 01:20:26;;;;;;;2.33;1.83;;;;;;;;;;5031119;28;20606;-56
2023/04/04 01:22:53;;;;;;;2.10;1.77;;;;;;;;;;5032046;28;20440;-57
2023/04/04 01:25:25;;;;;;;1.80;1.70;;;;;;;;;;5034505;28;20436;-57
2023/04/04 01:27:51;;;;;;;3.83;1.87;;;;;;;;;;5034663;28;20458;-56
2023/04/04 01:30:17;;;;;;;2.10;1.80;;;;;;;;;;5034484;28;20440;-56
2023/04/04 01:32:45;;;;;;;3.00;1.80;;;;;;;;;;5016764;28;20221;-57
2023/04/04 01:35:19;;;;;;;2.60;1.67;;;;;;;;;;5034453;28;20531;-56
2023/04/04 01:37:49;;;;;;;2.30;1.80;;;;;;;;;;5034560;28;20833;-57
2023/04/04 01:40:17;;;;;;;2.03;1.60;;;;;;;;;;5034548;28;20515;-56
2023/04/04 01:42:45;;;;;;;3.07;1.70;;;;;;;;;;5034570;28;20438;-56
2023/04/04 01:45:11;;;;;;;2.87;1.57;;;;;;;;;;5034282;28;20546;-56
2023/04/04 01:47:38;;;;;;;1.80;1.60;;;;;;;;;;5034269;28;20905;-56
2023/04/04 01:50:04;;;;;;;3.73;1.40;;;;;;;;;;5034103;28;20775;-56
2023/04/04 01:52:30;;;;;;;1.93;1.70;;;;;;;;;;5034244;28;20471;-56
2023/04/04 01:54:57;;;;;;;1.63;1.50;;;;;;;;;;5034101;28;21020;-57
2023/04/04 01:57:23;;;;;;;1.97;1.57;;;;;;;;;;5033793;28;20974;-56
2023/04/04 01:59:50;;;;;;;2.87;1.87;;;;;;;;;;5034110;28;20470;-57
2023/04/04 02:02:16;;;;;;;3.57;1.83;;;;;;;;;;5033998;28;20445;-57
2023/04/04 02:04:42;;;;;;;1.73;1.60;;;;;;;;;;5034060;28;20942;-57
2023/04/04 02:07:08;;;;;;;2.80;1.97;;;;;;;;;;5033823;28;20436;-57
2023/04/04 02:09:34;;;;;;;1.80;1.70;;;;;;;;;;5033878;28;20197;-57
2023/04/04 02:12:00;;;;;;;2.03;1.83;;;;;;;;;;5033857;28;20518;-57
2023/04/04 02:14:26;;;;;;;5.63;1.83;;;;;;;;;;5033686;28;20443;-57
2023/04/04 02:16:54;;;;;;;2.27;1.80;;;;;;;;;;5033684;28;20815;-56
2023/04/04 02:19:20;;;;;;;2.83;1.60;;;;;;;;;;5033505;28;20482;-57
2023/04/04 02:21:46;;;;;;;2.77;1.60;;;;;;;;;;5033834;28;20467;-56
2023/04/04 02:24:12;;;;;;;4.27;2.10;;;;;;;;;;5033475;28;20638;-56
2023/04/04 02:26:38;;;;;;;2.40;1.70;;;;;;;;;;5033742;28;20448;-56
2023/04/04 02:29:04;;;;;;;1.97;1.57;;;;;;;;;;5033443;28;20439;-56
2023/04/04 02:31:30;;;;;;;2.33;1.77;;;;;;;;;;5033713;28;20240;-56
2023/04/04 02:33:57;;;;;;;3.57;2.03;;;;;;;;;;5033119;28;20471;-56
2023/04/04 02:36:23;;;;;;;2.93;2.03;;;;;;;;;;5033003;28;20436;-56
2023/04/04 02:38:49;;;;;;;2.80;1.70;;;;;;;;;;5033433;28;20443;-57
2023/04/04 02:41:15;;;;;;;4.47;2.27;;;;;;;;;;5033432;28;20201;-57
2023/04/04 02:43:41;;;;;;;3.00;1.80;;;;;;;;;;5033436;28;20283;-57
2023/04/04 02:46:07;;;;;;;2.30;1.93;;;;;;;;;;5033154;28;20207;-57
2023/04/04 02:48:35;;;;;;;2.87;1.87;;;;;;;;;;5033114;28;20929;-57
2023/04/04 02:51:02;;;;;;;3.53;2.37;;;;;;;;;;5033280;28;20852;-57
2023/04/04 02:53:28;;;;;;;3.07;1.90;;;;;;;;;;5033272;28;20559;-56
2023/04/04 02:55:54;;;;;;;2.40;2.17;;;;;;;;;;5033151;28;20538;-57
2023/04/04 02:58:21;;;;;;;2.60;2.03;;;;;;;;;;5032704;28;20263;-57
2023/04/04 03:00:53;;;;;;;2.80;1.90;;;;;;;;;;5033142;28;20443;-57
2023/04/04 03:03:19;;;;;;;2.97;1.90;;;;;;;;;;5032862;28;20924;-57
2023/04/04 03:05:45;;;;;;;2.93;1.93;;;;;;;;;;5033019;28;20440;-56
2023/04/04 03:08:13;;;;;;;6.40;2.53;;;;;;;;;;5032777;28;20620;-57
2023/04/04 03:10:39;;;;;;;2.70;2.00;;;;;;;;;;5032886;28;20431;-56
2023/04/04 03:13:05;;;;;;;4.27;1.80;;;;;;;;;;5032486;28;20498;-57
2023/04/04 03:15:31;;;;;;;3.13;2.13;;;;;;;;;;5032813;28;20200;-55
2023/04/04 03:17:57;;;;;;;3.40;1.97;;;;;;;;;;5032620;28;20204;-55
2023/04/04 03:20:25;;;;;;;2.40;1.87;;;;;;;;;;5032560;28;20208;-56
2023/04/04 03:22:51;;;;;;;2.47;1.57;;;;;;;;;;5032572;28;20522;-57
2023/04/04 03:25:18;;;;;;;2.23;2.03;;;;;;;;;;5032454;28;20432;-57
2023/04/04 03:27:44;;;;;;;3.10;1.70;;;;;;;;;;5032667;28;20455;-57
2023/04/04 03:30:11;;;;;;;3.57;1.87;;;;;;;;;;5032385;28;20498;-57
2023/04/04 03:32:38;;;;;;;4.43;2.10;;;;;;;;;;5032402;28;20490;-55
2023/04/04 03:35:04;;;;;;;3.50;1.90;;;;;;;;;;5032213;28;20432;-56
2023/04/04 03:37:31;;;;;;;2.20;1.70;;;;;;;;;;5032344;28;20526;-55
2023/04/04 03:39:57;;;;;;;2.33;2.10;;;;;;;;;;5032388;28;20431;-56
2023/04/04 03:42:25;;;;;;;3.20;2.00;;;;;;;;;;5032050;28;20709;-56
2023/04/04 03:44:52;;;;;;;4.60;2.20;;;;;;;;;;5032199;28;20463;-56
2023/04/04 03:47:18;;;;;;;2.10;1.80;;;;;;;;;;5031084;28;20440;-56
2023/04/04 03:49:50;;;;;;;2.70;1.70;;;;;;;;;;5032185;28;20451;-56
2023/04/04 03:52:16;;;;;;;3.80;1.90;;;;;;;;;;5031891;28;20200;-56
2023/04/04 03:54:42;;;;;;;2.43;2.00;;;;;;;;;;5032001;28;20481;-57
2023/04/04 03:57:08;;;;;;;3.03;2.03;;;;;;;;;;5031855;28;20213;-55
2023/04/04 03:59:35;;;;;;;2.67;1.83;;;;;;;;;;5031914;28;20443;-56
2023/04/04 04:02:01;;;;;;;2.83;1.70;;;;;;;;;;5032233;28;20204;-56
2023/04/04 04:04:27;;;;;;;2.80;1.80;;;;;;;;;;5031917;28;20443;-56
2023/04/04 04:06:53;;;;;;;2.90;1.90;;;;;;;;;;5031820;28;20288;-59
2023/04/04 04:09:20;;;;;;;2.00;1.80;;;;;;;;;;5031625;28;20556;-56
2023/04/04 04:11:46;;;;;;;2.97;1.80;;;;;;;;;;5031959;28;20251;-57
2023/04/04 04:14:12;;;;;;;1.80;1.70;;;;;;;;;;5031655;28;20553;-56
2023/04/04 04:16:40;;;;;;;3.77;2.10;;;;;;;;;;5031788;28;20863;-56
2023/04/04 04:19:06;;;;;;;2.93;2.30;;;;;;;;;;5031610;28;20482;-56
2023/04/04 04:21:32;;;;;;;4.10;2.20;;;;;;;;;;5031827;28;20499;-56
2023/04/04 04:23:58;;;;;;;2.20;2.00;;;;;;;;;;5031863;28;20231;-56
2023/04/04 04:26:25;;;;;;;2.90;2.27;;;;;;;;;;5031380;28;20201;-56
2023/04/04 04:28:51;;;;;;;4.27;2.70;;;;;;;;;;5031562;28;20899;-56
2023/04/04 04:31:17;;;;;;;3.23;2.30;;;;;;;;;;5031578;28;20429;-57
2023/04/04 04:33:44;;;;;;;2.73;1.80;;;;;;;;;;5031501;28;20302;-57
2023/04/04 04:36:10;;;;;;;2.47;1.90;;;;;;;;;;5031495;28;20203;-57
2023/04/04 04:38:36;;;;;;;3.90;2.07;;;;;;;;;;5031615;28;20840;-57
2023/04/04 04:41:02;;;;;;;2.33;2.00;;;;;;;;;;5031522;28;20198;-57
2023/04/04 04:43:28;;;;;;;2.50;1.80;;;;;;;;;;5031448;28;20432;-56
2023/04/04 04:45:54;;;;;;;3.50;2.03;;;;;;;;;;5031395;28;20432;-55
2023/04/04 04:48:20;;;;;;;3.10;1.97;;;;;;;;;;5031208;28;20523;-56
2023/04/04 04:50:48;;;;;;;3.13;2.03;;;;;;;;;;5031515;28;20438;-56
2023/04/04 04:53:14;;;;;;;3.37;2.43;;;;;;;;;;5031339;28;20482;-56
2023/04/04 04:55:41;;;;;;;3.83;2.27;;;;;;;;;;5031295;28;20467;-56
2023/04/04 04:58:07;;;;;;;2.97;2.07;;;;;;;;;;5032534;28;20483;-56
2023/04/04 05:00:33;;;;;;;5.90;2.10;;;;;;;;;;5035228;28;20446;-57
2023/04/04 05:03:00;;;;;;;3.93;2.20;;;;;;;;;;5035227;28;20251;-57
2023/04/04 05:05:26;;;;;;;2.97;2.20;;;;;;;;;;5034798;28;20489;-56
2023/04/04 05:07:53;;;;;;;3.20;2.07;;;;;;;;;;5035045;28;20439;-56
2023/04/04 05:10:19;;;;;;;3.93;2.00;;;;;;;;;;5034977;28;20201;-57
2023/04/04 05:12:45;;;;;;;3.73;2.03;;;;;;;;;;5035094;28;20486;-56
2023/04/04 05:15:12;;;;;;;2.87;2.00;;;;;;;;;;5034935;28;20481;-56
2023/04/04 05:17:39;;;;;;;2.60;2.07;;;;;;;;;;5034596;28;20808;-56
2023/04/04 05:20:06;;;;;;;3.37;2.00;;;;;;;;;;5034843;28;20826;-57
2023/04/04 05:22:32;;;;;;;4.00;2.13;;;;;;;;;;5034940;28;20501;-55
2023/04/04 05:25:00;;;;;;;2.73;2.17;;;;;;;;;;5034980;28;20443;-56
2023/04/04 05:27:25;;;;;;;3.90;2.07;;;;;;;;;;5034678;28;20231;-56
2023/04/04 05:29:52;;;;;;;3.37;2.00;;;;;;;;;;5034834;28;20938;-55
2023/04/04 05:32:18;;;;;;;3.77;2.30;;;;;;;;;;5034609;28;20212;-57
2023/04/04 05:34:44;;;;;;;3.43;2.23;;;;;;;;;;5034725;28;20431;-56
2023/04/04 05:37:10;;;;;;;4.37;2.10;;;;;;;;;;5034415;28;20544;-56
2023/04/04 05:39:36;;;;;;;3.30;2.17;;;;;;;;;;5034586;28;20434;-56
2023/04/04 05:42:04;;;;;;;2.30;2.00;;;;;;;;;;5034447;28;20443;-56
2023/04/04 05:44:31;;;;;;;3.00;2.30;;;;;;;;;;5034465;28;20925;-56
2023/04/04 05:46:57;;;;;;;2.57;2.13;;;;;;;;;;5034246;28;20431;-56
2023/04/04 05:49:23;;;;;;;4.03;2.50;;;;;;;;;;5034162;28;20205;-57
2023/04/04 05:51:49;;;;;;;2.67;2.37;;;;;;;;;;5034298;28;20807;-56
2023/04/04 05:54:15;;;;;;;2.73;2.00;;;;;;;;;;5034144;28;20224;-55
2023/04/04 05:56:41;;;;;;;2.17;1.93;;;;;;;;;;5034151;28;20217;-57
2023/04/04 05:59:08;;;;;;;2.60;2.20;;;;;;;;;;5033903;28;20586;-57
2023/04/04 06:01:34;;;;;;;2.50;2.00;;;;;;;;;;5034181;28;20203;-56
2023/04/04 06:04:00;;;;;;;2.40;2.20;;;;;;;;;;5034158;28;20432;-57
2023/04/04 06:06:26;;;;;;;2.67;2.20;;;;;;;;;;5033939;28;20527;-57
2023/04/04 06:08:52;;;;;;;4.60;2.57;;;;;;;;;;5033408;28;20669;-56
2023/04/04 06:11:18;;;;;;;4.33;2.00;;;;;;;;;;5033456;28;20432;-59
2023/04/04 06:13:44;;;;;;;3.33;2.00;;;;;;;;;;5033974;28;20279;-57
2023/04/04 06:16:12;;;;;;;2.27;1.93;;;;;;;;;;5033766;28;20201;-56
2023/04/04 06:18:38;;;;;;;3.50;2.17;;;;;;;;;;5033699;28;20448;-57
2023/04/04 06:21:04;;;;;;;3.70;2.37;;;;;;;;;;5033741;28;20442;-57
2023/04/04 06:23:30;;;;;;;4.80;2.20;;;;;;;;;;5033758;28;20189;-57
2023/04/04 06:25:56;;;;;;;4.87;2.20;;;;;;;;;;5033784;28;20548;-57
2023/04/04 06:28:22;;;;;;;3.77;2.23;;;;;;;;;;5033521;28;20448;-57
2023/04/04 06:30:49;;;;;;;5.93;2.30;;;;;;;;;;5033515;28;20527;-57
2023/04/04 06:33:16;;;;;;;2.30;2.10;;;;;;;;;;5033437;28;20229;-58
2023/04/04 06:35:43;;;;;;;3.80;1.93;;;;;;;;;;5033503;28;20481;-57
2023/04/04 06:38:09;;;;;;;3.73;2.33;;;;;;;;;;5033343;28;20444;-56
2023/04/04 06:40:35;;;;;;;4.97;2.27;;;;;;;;;;5033400;28;20447;-57
2023/04/04 06:43:02;;;;;;;3.20;2.00;;;;;;;;;;5033444;28;20189;-57
2023/04/04 06:45:28;;;;;;;3.13;2.30;;;;;;;;;;5033384;28;20436;-57
2023/04/04 06:47:54;;;;;;;3.20;2.20;;;;;;;;;;5033148;28;20527;-58
2023/04/04 06:50:22;;;;;;;3.93;2.20;;;;;;;;;;5032971;28;20440;-57
2023/04/04 06:52:48;;;;;;;2.47;2.07;;;;;;;;;;5033053;28;20934;-57
2023/04/04 06:55:14;;;;;;;4.03;2.20;;;;;;;;;;5033335;28;20467;-57
2023/04/04 06:57:40;;;;;;;2.90;2.13;;;;;;;;;;5032828;28;20541;-58
2023/04/04 07:00:06;;;;;;;6.80;2.30;;;;;;;;;;5033035;28;20432;-57
2023/04/04 07:02:32;;;;;;;4.40;2.17;;;;;;;;;;5032839;28;20667;-58
2023/04/04 07:04:58;;;;;;;4.10;2.47;;;;;;;;;;5033100;28;20436;-57
2023/04/04 07:07:26;;;;;;;5.63;2.27;;;;;;;;;;5032776;28;20451;-57
2023/04/04 07:09:52;;;;;;;2.80;2.20;;;;;;;;;;5032920;28;20502;-61
2023/04/04 07:12:18;;;;;;;3.40;2.33;;;;;;;;;;5032776;28;20444;-58
2023/04/04 07:14:44;;;;;;;4.73;2.73;;;;;;;;;;5032733;28;20529;-57
2023/04/04 07:17:10;;;;;;;6.50;3.67;;;;;;;;;;5032500;28;20204;-58
2023/04/04 07:19:36;;;;;;;4.67;2.70;;;;;;;;;;5032717;28;20208;-55
2023/04/04 07:22:02;;;;;;;7.10;3.47;;;;;;;;;;5032735;28;20359;-55
2023/04/04 07:24:29;;;;;;;6.47;3.50;;;;;;;;;;5032800;28;20515;-56
2023/04/04 07:26:56;;;;;;;5.53;3.00;;;;;;;;;;5030782;28;20205;-55
2023/04/04 07:29:22;;;;;;;6.67;3.33;;;;;;;;;;5032262;28;20756;-55
2023/04/04 07:31:48;;;;;;;4.87;2.93;;;;;;;;;;5032177;28;20942;-55
2023/04/04 07:34:14;;;;;;;7.23;3.50;;;;;;;;;;5032049;28;20479;-55
2023/04/04 07:36:41;;;;;;;7.47;3.90;;;;;;;;;;5032292;28;20436;-55
2023/04/04 07:39:06;;;;;;;6.20;2.30;;;;;;;;;;5031978;28;20677;-55
2023/04/04 07:41:34;;;;;;;4.23;2.20;;;;;;;;;;5031896;28;20451;-57
2023/04/04 07:44:00;;;;;;;3.33;1.87;;;;;;;;;;5032083;28;20663;-55
2023/04/04 07:46:27;;;;;;;2.93;1.80;;;;;;;;;;5031775;28;20574;-55
2023/04/04 07:48:53;;;;;;;4.00;1.80;;;;;;;;;;5031645;28;20752;-55
2023/04/04 07:51:27;;;;;;;5.57;1.57;;;;;;;;;;5031744;28;20452;-55
2023/04/04 07:53:53;;;;;;;3.00;1.90;;;;;;;;;;5031791;28;20229;-55
2023/04/04 07:56:20;;;;;;;3.93;2.27;;;;;;;;;;5031601;28;20456;-55
2023/04/04 07:58:47;;;;;;;3.23;1.70;;;;;;;;;;5032133;28;20475;-55
2023/04/04 08:01:13;;;;;;;2.23;1.63;;;;;;;;;;5032160;28;20844;-56
2023/04/04 08:03:40;;;;;;;2.13;1.50;;;;;;;;;;5032171;28;20450;-56
2023/04/04 08:06:06;;;;;;;4.67;1.67;;;;;;;;;;5031957;28;20196;-57
2023/04/04 08:08:32;;;;;;;5.53;2.07;;;;;;;;;;5032062;28;20985;-56
2023/04/04 08:10:58;;;;;;;3.87;2.00;;;;;;;;;;5032058;28;20501;-56
2023/04/04 08:13:24;;;;;;;3.63;2.00;;;;;;;;;;5031732;28;20479;-56
2023/04/04 08:15:51;;;;;;;4.47;2.03;;;;;;;;;;5031939;28;20196;-56
2023/04/04 08:18:18;;;;;;;2.33;1.63;;;;;;;;;;5031746;28;20459;-56
2023/04/04 08:20:44;;;;;;;4.53;1.97;;;;;;;;;;5032077;28;20743;-56
2023/04/04 08:23:11;;;;;;;3.43;1.77;;;;;;;;;;5031774;28;20493;-56
2023/04/04 08:25:38;;;;;;;2.33;1.60;;;;;;;;;;5032006;28;20228;-56
2023/04/04 08:28:04;;;;;;;3.80;2.17;;;;;;;;;;5031707;28;20922;-56
2023/04/04 08:30:30;;;;;;;3.23;1.87;;;;;;;;;;5031779;28;20436;-56
2023/04/04 08:32:57;;;;;;;2.83;1.53;;;;;;;;;;5031150;28;20471;-56
2023/04/04 08:35:24;;;;;;;2.93;1.70;;;;;;;;;;5031537;28;20444;-56
2023/04/04 08:37:50;;;;;;;3.47;1.70;;;;;;;;;;5031741;28;20201;-55
2023/04/04 08:40:16;;;;;;;5.93;1.90;;;;;;;;;;5031728;28;20215;-55
2023/04/04 08:42:43;;;;;;;2.67;1.80;;;;;;;;;;5031798;28;20208;-56
2023/04/04 08:45:10;;;;;;;3.10;1.70;;;;;;;;;;5031482;28;20678;-56
2023/04/04 08:47:37;;;;;;;2.63;1.40;;;;;;;;;;5031212;28;20259;-56
2023/04/04 08:50:05;;;;;;;2.57;1.93;;;;;;;;;;5029634;28;20534;-56
2023/04/04 08:52:33;;;;;;;2.70;1.70;;;;;;;;;;5029578;28;20200;-55
2023/04/04 08:55:00;;;;;;;2.37;1.40;;;;;;;;;;5031504;28;20209;-57
2023/04/04 08:57:26;;;;;;;3.87;1.93;;;;;;;;;;5030963;28;20761;-57
2023/04/04 08:59:52;;;;;;;2.67;1.70;;;;;;;;;;5031439;28;20573;-57
2023/04/04 09:02:23;;;;;;;2.63;1.60;;;;;;;;;;5031131;28;20219;-58
2023/04/04 09:04:49;;;;;;;3.90;1.60;;;;;;;;;;5031395;28;20655;-58
2023/04/04 09:07:18;;;;;;;3.53;1.90;;;;;;;;;;5029480;28;20208;-58
2023/04/04 09:09:45;;;;;;;2.00;1.70;;;;;;;;;;5031093;28;20251;-58
2023/04/04 09:12:12;;;;;;;3.63;1.87;;;;;;;;;;5030765;28;20279;-57
2023/04/04 09:14:39;;;;;;;3.67;2.07;;;;;;;;;;5030965;28;20228;-57
2023/04/04 09:17:07;;;;;;;2.53;1.50;;;;;;;;;;5030815;28;20224;-57
2023/04/04 09:19:33;;;;;;;4.07;1.80;;;;;;;;;;5030822;28;20205;-57
2023/04/04 09:21:59;;;;;;;2.13;1.40;;;;;;;;;;5031014;28;20201;-58
2023/04/04 09:24:36;;;;;;;3.63;1.73;;;;;;;;;;5030773;28;20283;-58
2023/04/04 09:27:02;;;;;;;3.63;2.00;;;;;;;;;;5031031;28;20295;-56
2023/04/04 09:29:28;;;;;;;2.60;1.70;;;;;;;;;;5030786;28;20659;-56
2023/04/04 09:31:54;;;;;;;3.90;1.60;;;;;;;;;;5030790;28;20231;-57
2023/04/04 09:34:20;;;;;;;2.93;1.67;;;;;;;;;;5030588;28;20233;-57
2023/04/04 09:36:47;;;;;;;1.60;1.43;;;;;;;;;;5030855;28;20224;-57
2023/04/04 09:39:16;;;;;;;2.50;1.60;;;;;;;;;;5030832;28;20199;-57
2023/04/04 09:41:44;;;;;;;3.57;1.87;;;;;;;;;;5030755;28;20189;-57
2023/04/04 09:44:11;;;;;;;2.87;2.00;;;;;;;;;;5030645;28;20197;-57
2023/04/04 09:46:38;;;;;;;2.70;1.70;;;;;;;;;;5034270;28;20196;-58
2023/04/04 09:49:04;;;;;;;2.37;1.60;;;;;;;;;;5034094;28;20224;-57
2023/04/04 09:51:37;;;;;;;5.37;2.00;;;;;;;;;;5034132;28;20193;-57
2023/04/04 09:54:05;;;;;;;2.90;1.70;;;;;;;;;;5034079;28;20229;-57
2023/04/04 09:56:33;;;;;;;3.30;1.67;;;;;;;;;;5034155;28;20229;-56
2023/04/04 09:59:01;;;;;;;3.17;1.90;;;;;;;;;;5033841;28;20770;-58
2023/04/04 10:01:28;;;;;;;2.70;1.70;;;;;;;;;;5034280;28;20201;-57
2023/04/04 10:03:54;;;;;;;2.67;1.60;;;;;;;;;;5034246;28;20228;-59
2023/04/04 10:06:21;;;;;;;3.13;1.70;;;;;;;;;;5034214;28;20197;-58
2023/04/04 10:08:48;;;;;;;2.37;1.73;;;;;;;;;;5034265;28;20208;-57
2023/04/04 10:11:27;;;;;;;3.07;2.10;;;;;;;;;;5034102;28;20247;-56
2023/04/04 10:13:53;;;;;;;1.60;1.50;;;;;;;;;;5034139;28;20232;-57
2023/04/04 10:16:23;;;;;;;2.53;1.67;;;;;;;;;;5033931;28;20547;-57
2023/04/04 10:18:50;;;;;;;3.23;1.90;;;;;;;;;;5033610;28;20221;-57
2023/04/04 10:21:16;;;;;;;1.80;1.60;;;;;;;;;;5033809;28;20201;-57
2023/04/04 10:23:45;;;;;;;3.93;1.80;;;;;;;;;;5033904;28;20235;-57
2023/04/04 10:26:12;;;;;;;4.67;2.00;;;;;;;;;;5033691;28;20568;-57
2023/04/04 10:28:38;;;;;;;4.67;1.80;;;;;;;;;;5033622;28;20212;-56
2023/04/04 10:31:06;;;;;;;3.13;1.60;;;;;;;;;;5033609;28;20197;-57
2023/04/04 10:33:37;;;;;;;2.73;1.70;;;;;;;;;;5033293;28;20282;-57
2023/04/04 10:36:04;;;;;;;3.90;1.77;;;;;;;;;;5033590;28;20208;-57
2023/04/04 10:38:32;;;;;;;3.40;1.63;;;;;;;;;;5033443;28;20339;-58
2023/04/04 10:40:59;;;;;;;2.83;1.80;;;;;;;;;;5033487;28;20659;-58
2023/04/04 10:43:27;;;;;;;2.10;1.67;;;;;;;;;;5033306;28;20207;-57
2023/04/04 10:45:53;;;;;;;2.87;1.60;;;;;;;;;;5033367;28;20205;-57
2023/04/04 10:48:19;;;;;;;1.67;1.30;;;;;;;;;;5033039;28;20243;-58
2023/04/04 10:50:47;;;;;;;2.73;1.60;;;;;;;;;;5033345;28;20243;-57
2023/04/04 10:53:14;;;;;;;1.93;1.60;;;;;;;;;;5033130;28;20295;-57
2023/04/04 10:55:41;;;;;;;2.63;1.53;;;;;;;;;;5032671;28;20221;-57
2023/04/04 10:58:07;;;;;;;2.23;1.50;;;;;;;;;;5032764;28;20778;-58
2023/04/04 11:00:48;;;;;;;2.20;1.43;;;;;;;;;;5030916;28;20205;-57
2023/04/04 11:03:14;;;;;;;2.37;1.50;;;;;;;;;;5032883;28;20204;-57
2023/04/04 11:05:46;;;;;;;3.57;2.00;;;;;;;;;;5033011;28;20295;-56
2023/04/04 11:08:18;;;;;;;4.50;1.80;;;;;;;;;;5033053;28;20276;-58
2023/04/04 11:10:45;;;;;;;3.23;1.80;;;;;;;;;;5033036;28;20207;-56
2023/04/04 11:13:14;;;;;;;2.83;1.80;;;;;;;;;;5031007;28;20217;-56
2023/04/04 11:15:51;;;;;;;2.50;1.53;;;;;;;;;;5032728;28;20201;-58
2023/04/04 11:18:19;;;;;;;3.43;1.60;;;;;;;;;;5032586;28;20260;-59
2023/04/04 11:20:47;;;;;;;2.77;1.77;;;;;;;;;;5032754;28;20688;-58
2023/04/04 11:23:20;;;;;;;2.57;1.40;;;;;;;;;;5032739;28;20564;-57
2023/04/04 11:25:50;;;;;;;3.47;1.60;;;;;;;;;;5032686;28;20215;-58
2023/04/04 11:28:24;;;;;;;2.37;1.53;;;;;;;;;;5032507;28;20663;-58
2023/04/04 11:31:14;;;;;;;1.73;1.43;;;;;;;;;;5032441;28;20196;-57
2023/04/04 11:33:55;;;;;;;2.97;1.60;;;;;;;;;;5032235;28;20255;-57
2023/04/04 11:36:40;;;;;;;2.67;1.93;;;;;;;;;;5032328;28;20280;-56
2023/04/04 11:39:08;;;;;;;3.37;1.60;;;;;;;;;;5032545;28;20205;-58
2023/04/04 11:41:43;;;;;;;2.90;1.90;;;;;;;;;;5032436;28;20218;-56
2023/04/04 11:44:10;;;;;;;3.23;1.80;;;;;;;;;;5032408;28;20196;-58
2023/04/04 11:46:36;;;;;;;2.53;1.33;;;;;;;;;;5032434;28;20208;-58
2023/04/04 11:49:04;;;;;;;6.33;2.00;;;;;;;;;;5032425;28;20204;-57
2023/04/04 11:51:31;;;;;;;2.50;1.80;;;;;;;;;;5032381;28;20205;-56
2023/04/04 11:53:57;;;;;;;3.13;1.73;;;;;;;;;;5032480;28;20232;-57
2023/04/04 11:56:23;;;;;;;2.37;1.60;;;;;;;;;;5032121;28;20225;-57
2023/04/04 11:58:50;;;;;;;1.80;1.60;;;;;;;;;;5032159;28;20312;-57
2023/04/04 12:01:16;;;;;;;4.70;1.70;;;;;;;;;;5032071;28;20251;-57
2023/04/04 12:03:42;;;;;;;3.33;1.80;;;;;;;;;;5032357;28;20284;-57
2023/04/04 12:06:11;;;;;;;2.03;1.50;;;;;;;;;;5032084;28;20228;-57
2023/04/04 12:08:39;;;;;;;3.80;1.80;;;;;;;;;;5031471;28;20256;-57
2023/04/04 12:11:09;;;;;;;3.17;1.43;;;;;;;;;;5010028;28;20213;-57
2023/04/04 12:13:41;;;;;;;3.27;1.60;;;;;;;;;;5011926;28;20587;-56
2023/04/04 12:16:07;;;;;;;3.23;1.50;;;;;;;;;;5011990;28;20280;-56
2023/04/04 12:18:34;;;;;;;3.40;2.00;;;;;;;;;;5011675;28;20619;-56
2023/04/04 12:21:00;;;;;;;3.10;1.70;;;;;;;;;;5012105;28;20196;-56
2023/04/04 12:23:27;;;;;;;3.07;1.70;;;;;;;;;;4994351;28;20198;-57
2023/04/04 12:25:54;;;;;;;2.33;1.70;;;;;;;;;;5011891;28;20340;-56
2023/04/04 12:28:21;;;;;;;4.60;2.00;;;;;;;;;;5011873;28;20209;-57
2023/04/04 12:30:47;;;;;;;3.67;1.70;;;;;;;;;;5011927;28;20615;-56
2023/04/04 12:33:13;;;;;;;2.30;2.03;;;;;;;;;;5011815;28;20721;-57
2023/04/04 12:35:39;;;;;;;3.10;2.07;;;;;;;;;;5009888;28;20658;-56
2023/04/04 12:38:09;;;;;;;3.07;1.40;;;;;;;;;;5010416;28;20675;-57
2023/04/04 12:40:37;;;;;;;1.73;1.47;;;;;;;;;;5011834;28;20225;-56
2023/04/04 12:43:04;;;;;;;3.50;1.93;;;;;;;;;;5011969;28;20682;-57
2023/04/04 12:45:31;;;;;;;3.67;1.93;;;;;;;;;;5011985;28;20190;-57
2023/04/04 12:47:57;;;;;;;1.73;1.60;;;;;;;;;;5011922;28;20202;-59
2023/04/04 12:50:26;;;;;;;3.00;1.63;;;;;;;;;;5011593;28;20219;-64
2023/04/04 12:52:55;;;;;;;2.97;1.70;;;;;;;;;;5011515;28;20253;-58
2023/04/04 12:55:22;;;;;;;2.83;1.90;;;;;;;;;;5011466;28;20206;-58
2023/04/04 12:57:52;;;;;;;3.37;1.70;;;;;;;;;;5011338;28;20646;-56
2023/04/04 13:00:20;;;;;;;2.20;1.63;;;;;;;;;;5011567;28;20218;-60
2023/04/04 13:02:48;;;;;;;2.97;1.80;;;;;;;;;;5011488;28;20224;-54
2023/04/04 13:05:15;;;;;;;2.50;1.70;;;;;;;;;;5011498;28;20202;-54
2023/04/04 13:07:44;;;;;;;3.63;1.90;;;;;;;;;;5011591;28;20205;-55
2023/04/04 13:10:12;;;;;;;2.70;1.87;;;;;;;;;;5011697;28;20221;-56
2023/04/04 13:12:59;;;;;;;2.00;1.80;;;;;;;;;;5011667;28;20285;-56
2023/04/04 13:15:40;;;;;;;2.50;1.63;;;;;;;;;;5011542;28;20209;-56
2023/04/04 13:18:13;;;;;;;2.10;1.70;;;;;;;;;;5010865;28;20293;-56
2023/04/04 13:20:39;;;;;;;3.57;1.50;;;;;;;;;;5013180;28;20202;-55
2023/04/04 13:23:05;;;;;;;2.43;1.60;;;;;;;;;;5014823;28;20201;-56
2023/04/04 13:25:31;;;;;;;1.50;1.40;;;;;;;;;;5014876;28;20656;-57
2023/04/04 13:27:58;;;;;;;1.80;1.50;;;;;;;;;;5014995;28;20224;-56
2023/04/04 13:30:25;;;;;;;2.70;1.70;;;;;;;;;;5014620;28;20208;-56
2023/04/04 13:32:51;;;;;;;2.77;1.60;;;;;;;;;;5014681;28;20411;-56
2023/04/04 13:35:17;;;;;;;2.23;1.60;;;;;;;;;;5014602;28;20248;-56
2023/04/04 13:37:43;;;;;;;3.60;1.97;;;;;;;;;;5014888;28;20248;-56
2023/04/04 13:40:09;;;;;;;4.17;2.00;;;;;;;;;;5014642;28;20691;-56
2023/04/04 13:42:35;;;;;;;3.40;1.80;;;;;;;;;;5014528;28;20297;-56
2023/04/04 13:45:03;;;;;;;3.17;1.83;;;;;;;;;;5014533;28;20284;-56
2023/04/04 13:47:29;;;;;;;2.43;1.90;;;;;;;;;;5014435;28;20201;-56
2023/04/04 13:49:55;;;;;;;2.53;1.60;;;;;;;;;;5014191;28;20554;-56
2023/04/04 13:52:21;;;;;;;1.83;1.60;;;;;;;;;;5014403;28;20335;-55
2023/04/04 13:54:47;;;;;;;3.33;1.77;;;;;;;;;;5014415;28;20715;-54
2023/04/04 13:57:13;;;;;;;2.27;1.80;;;;;;;;;;5014191;28;20217;-55
2023/04/04 13:59:39;;;;;;;2.40;1.67;;;;;;;;;;5014337;28;20686;-55
2023/04/04 14:02:06;;;;;;;2.27;1.80;;;;;;;;;;5014023;28;20603;-55
2023/04/04 14:04:32;;;;;;;4.70;1.80;;;;;;;;;;5014054;28;20297;-55
2023/04/04 14:06:58;;;;;;;2.30;1.60;;;;;;;;;;5014248;28;20284;-55
2023/04/04 14:09:24;;;;;;;2.53;1.90;;;;;;;;;;5013964;28;20569;-55
2023/04/04 14:11:50;;;;;;;2.73;1.80;;;;;;;;;;5013857;28;20256;-55
2023/04/04 14:14:16;;;;;;;1.90;1.70;;;;;;;;;;5013735;28;20225;-55
2023/04/04 14:16:42;;;;;;;3.07;1.67;;;;;;;;;;5014029;28;20202;-55
2023/04/04 14:19:10;;;;;;;2.33;1.60;;;;;;;;;;5013891;28;20201;-56
2023/04/04 14:21:35;;;;;;;3.33;2.00;;;;;;;;;;5013793;28;20436;-55
2023/04/04 14:24:02;;;;;;;3.57;1.80;;;;;;;;;;5013879;28;20213;-55
2023/04/04 14:26:28;;;;;;;3.23;1.70;;;;;;;;;;5013835;28;20215;-56
2023/04/04 14:28:54;;;;;;;2.23;1.70;;;;;;;;;;5013591;28;20671;-55
2023/04/04 14:31:20;;;;;;;2.23;1.60;;;;;;;;;;5013196;28;20194;-55
2023/04/04 14:33:47;;;;;;;2.23;1.87;;;;;;;;;;5013898;28;20699;-55
2023/04/04 14:36:14;;;;;;;4.43;2.20;;;;;;;;;;5014142;28;20197;-55
2023/04/04 14:38:40;;;;;;;3.13;2.00;;;;;;;;;;5014010;28;20201;-55
2023/04/04 14:41:06;;;;;;;3.07;1.80;;;;;;;;;;5013826;28;20213;-55
2023/04/04 14:43:34;;;;;;;3.37;1.97;;;;;;;;;;5013802;28;20204;-55